Time;durP1;ratioP1;P1;durP2;ratioP2;P2;SDS_P1;SDS_P2;PMS_P1;PMS_P2;Temp;Humidity;BMP_temperature;BMP_pressure;BME280_temperature;BME280_humidity;BME280_pressure;Samples;Min_cycle;Max_cycle;Signal;HPM_P1;HPM_P2
2021/10/20 00:00:09;;;;;;;21.75;14.20;;;;;;;11.59;72.10;100955.34;5053510;28;20025;-48
2021/10/20 00:02:34;;;;;;;20.58;13.07;;;;;;;11.70;70.96;100957.59;5053722;28;20021;-48
2021/10/20 00:05:00;;;;;;;20.17;13.05;;;;;;;11.80;71.10;100949.31;5053692;28;20377;-47
2021/10/20 00:07:25;;;;;;;21.45;13.75;;;;;;;11.86;70.43;100953.91;5052362;28;20039;-49
2021/10/20 00:09:51;;;;;;;23.98;12.95;;;;;;;11.77;70.72;100942.53;5053637;28;20142;-48
2021/10/20 00:12:16;;;;;;;21.15;13.35;;;;;;;11.89;71.11;100949.09;5053492;28;20039;-47
2021/10/20 00:14:42;;;;;;;22.05;12.57;;;;;;;11.72;71.01;100939.56;5053247;28;20031;-49
2021/10/20 00:17:07;;;;;;;20.65;12.88;;;;;;;11.78;70.67;100944.16;5053183;28;20401;-48
2021/10/20 00:19:33;;;;;;;20.75;13.30;;;;;;;11.79;71.31;100945.00;5053254;28;20029;-47
2021/10/20 00:21:58;;;;;;;26.55;13.98;;;;;;;11.80;71.05;100938.66;5053315;28;20106;-48
2021/10/20 00:24:23;;;;;;;20.83;13.32;;;;;;;11.69;71.71;100929.25;5052847;28;20385;-50
2021/10/20 00:26:49;;;;;;;20.77;13.82;;;;;;;11.83;71.04;100930.31;5053507;28;20027;-50
2021/10/20 00:29:14;;;;;;;20.60;13.25;;;;;;;11.81;71.37;100935.00;5051871;28;20135;-48
2021/10/20 00:31:40;;;;;;;21.90;13.90;;;;;;;12.09;70.35;100935.22;5053068;28;20049;-48
2021/10/20 00:34:05;;;;;;;21.52;13.73;;;;;;;12.07;70.81;100940.75;5052666;28;20032;-47
2021/10/20 00:36:31;;;;;;;21.85;14.48;;;;;;;11.78;72.55;100940.69;5053181;28;20086;-47
2021/10/20 00:38:56;;;;;;;23.10;14.90;;;;;;;11.57;73.49;100941.38;5053091;28;20508;-47
2021/10/20 00:41:26;;;;;;;22.48;14.07;;;;;;;11.57;73.19;100944.88;5052911;28;20124;-48
2021/10/20 00:43:52;;;;;;;22.65;15.20;;;;;;;11.24;75.48;100945.16;5050832;28;20039;-49
2021/10/20 00:46:30;;;;;;;25.30;15.05;;;;;;;11.20;75.34;100935.84;5052670;28;20021;-48
2021/10/20 00:48:56;;;;;;;24.40;13.93;;;;;;;11.25;75.38;100937.97;5033111;28;20079;-49
2021/10/20 00:51:25;;;;;;;23.35;15.30;;;;;;;11.25;75.16;100943.31;5032728;28;20460;-48
2021/10/20 00:53:52;;;;;;;23.25;14.63;;;;;;;11.52;73.46;100931.28;5032791;28;20108;-47
2021/10/20 00:56:17;;;;;;;22.73;14.45;;;;;;;11.38;74.45;100932.06;5032733;28;20033;-49
2021/10/20 00:58:43;;;;;;;23.88;15.15;;;;;;;11.42;74.76;100930.69;5032889;28;20072;-49
2021/10/20 01:01:08;;;;;;;25.80;15.50;;;;;;;11.40;74.03;100927.38;5032667;28;20037;-47
2021/10/20 01:03:34;;;;;;;21.92;15.48;;;;;;;11.34;74.34;100937.72;5032315;28;20025;-47
2021/10/20 01:05:59;;;;;;;24.30;15.05;;;;;;;11.29;74.67;100929.47;5032539;28;20036;-47
2021/10/20 01:08:25;;;;;;;23.52;14.55;;;;;;;11.08;74.63;100932.78;5032382;28;20489;-48
2021/10/20 01:10:50;;;;;;;20.67;14.30;;;;;;;10.89;76.68;100928.75;5032444;28;20338;-50
2021/10/20 01:13:15;;;;;;;25.45;14.60;;;;;;;10.86;76.08;100936.28;5032282;28;20191;-47
2021/10/20 01:15:42;;;;;;;21.13;13.85;;;;;;;10.98;74.14;100937.50;5031036;28;20025;-49
2021/10/20 01:18:07;;;;;;;19.70;13.93;;;;;;;10.99;74.59;100943.69;5032276;28;20029;-47
2021/10/20 01:20:33;;;;;;;22.92;14.15;;;;;;;10.98;74.27;100942.84;5030824;28;20053;-47
2021/10/20 01:22:58;;;;;;;23.33;14.02;;;;;;;11.04;74.94;100944.81;5032329;28;20030;-49
2021/10/20 01:25:24;;;;;;;20.15;14.10;;;;;;;11.23;73.13;100940.00;5031204;28;20064;-49
2021/10/20 01:27:49;;;;;;;20.40;13.27;;;;;;;11.13;73.18;100945.56;5014344;28;20401;-47
2021/10/20 01:30:15;;;;;;;20.48;12.60;;;;;;;11.11;73.45;100944.91;5032188;28;20083;-50
2021/10/20 01:32:40;;;;;;;18.80;12.45;;;;;;;11.14;73.07;100948.06;5031751;28;20462;-49
2021/10/20 01:35:06;;;;;;;19.98;12.48;;;;;;;11.00;73.44;100946.16;5031994;28;20029;-48
2021/10/20 01:37:32;;;;;;;19.17;12.48;;;;;;;11.05;73.45;100950.97;5032048;28;20028;-50
2021/10/20 01:39:57;;;;;;;18.27;12.98;;;;;;;10.89;74.45;100941.22;5031655;28;20026;-48
2021/10/20 01:42:26;;;;;;;17.48;12.35;;;;;;;11.02;72.81;100951.31;5031966;28;20033;-47
2021/10/20 01:44:52;;;;;;;17.33;12.93;;;;;;;10.74;74.77;100946.50;5031320;28;20060;-50
2021/10/20 01:47:17;;;;;;;19.33;12.05;;;;;;;10.94;73.03;100949.53;5038015;28;20021;-48
2021/10/20 01:49:43;;;;;;;18.08;12.13;;;;;;;10.82;73.08;100938.44;5051599;28;20021;-48
2021/10/20 01:52:08;;;;;;;16.77;11.45;;;;;;;11.07;71.65;100957.75;5051444;28;20104;-49
2021/10/20 01:54:34;;;;;;;17.90;12.55;;;;;;;10.99;71.63;100957.00;5051649;28;20025;-48
2021/10/20 01:56:59;;;;;;;17.88;11.80;;;;;;;11.00;72.23;100956.81;5051671;28;20485;-50
2021/10/20 01:59:24;;;;;;;17.90;12.05;;;;;;;10.78;72.97;100953.13;5051472;28;20017;-52
2021/10/20 02:01:50;;;;;;;19.55;11.80;;;;;;;10.80;73.11;100953.78;5051037;28;20017;-51
2021/10/20 02:04:15;;;;;;;17.52;11.65;;;;;;;10.90;71.94;100962.34;5050955;28;20021;-48
2021/10/20 02:06:42;;;;;;;18.98;12.10;;;;;;;10.89;72.35;100963.38;5050911;28;20083;-48
2021/10/20 02:09:08;;;;;;;16.23;11.00;;;;;;;10.83;72.71;100960.56;5051045;28;20025;-48
2021/10/20 02:11:34;;;;;;;15.93;11.20;;;;;;;10.88;71.96;100961.72;5051259;28;20033;-49
2021/10/20 02:14:04;;;;;;;18.77;11.75;;;;;;;10.72;72.26;100962.63;5051039;28;20406;-51
2021/10/20 02:16:29;;;;;;;14.80;10.30;;;;;;;10.82;70.79;100959.75;5051186;28;20457;-49
2021/10/20 02:18:55;;;;;;;16.70;10.93;;;;;;;10.67;71.15;100966.81;5050958;28;20087;-50
2021/10/20 02:21:20;;;;;;;14.82;10.70;;;;;;;10.51;72.18;100944.59;5050954;28;20021;-50
2021/10/20 02:23:46;;;;;;;15.38;10.93;;;;;;;10.73;71.17;100961.63;5051086;28;20507;-48
2021/10/20 02:26:12;;;;;;;15.98;10.70;;;;;;;10.72;71.13;100965.31;5050871;28;20074;-49
2021/10/20 02:28:37;;;;;;;15.77;11.02;;;;;;;10.74;70.90;100965.13;5050902;28;20025;-50
2021/10/20 02:31:02;;;;;;;17.17;11.32;;;;;;;10.96;69.94;100971.47;5051034;28;20086;-48
2021/10/20 02:33:28;;;;;;;15.23;11.05;;;;;;;10.75;70.96;100970.25;5050930;28;20408;-50
2021/10/20 02:35:53;;;;;;;15.95;11.73;;;;;;;10.78;71.32;100974.44;5051092;28;20029;-48
2021/10/20 02:38:19;;;;;;;16.52;11.77;;;;;;;10.91;71.13;100973.88;5049552;28;20032;-50
2021/10/20 02:40:44;;;;;;;14.95;11.43;;;;;;;10.98;70.59;100969.47;5050421;28;20028;-47
2021/10/20 02:43:10;;;;;;;15.57;11.57;;;;;;;10.98;69.97;100964.13;5050706;28;20017;-47
2021/10/20 02:45:35;;;;;;;16.50;11.15;;;;;;;10.98;70.37;100966.81;5050462;28;20083;-48
2021/10/20 02:48:01;;;;;;;16.42;11.25;;;;;;;11.06;70.53;100960.59;5050277;28;20102;-48
2021/10/20 02:50:28;;;;;;;18.13;11.07;;;;;;;11.01;70.69;100961.13;5050228;28;20029;-50
2021/10/20 02:52:54;;;;;;;18.23;10.82;;;;;;;10.91;70.17;100960.53;5050452;28;20032;-49
2021/10/20 02:55:20;;;;;;;17.30;12.10;;;;;;;10.94;70.75;100957.50;5048861;28;20032;-48
2021/10/20 02:57:45;;;;;;;18.27;11.57;;;;;;;11.25;69.53;100956.63;5050346;28;20033;-47
2021/10/20 03:00:11;;;;;;;19.90;12.35;;;;;;;11.17;69.21;100951.38;5050159;28;20025;-48
2021/10/20 03:02:36;;;;;;;20.13;12.35;;;;;;;11.16;69.70;100953.22;5050644;28;20389;-49
2021/10/20 03:05:02;;;;;;;18.58;11.70;;;;;;;11.10;70.83;100956.56;5049784;28;20102;-49
2021/10/20 03:07:27;;;;;;;18.02;11.90;;;;;;;11.10;70.36;100960.06;5050169;28;20027;-48
2021/10/20 03:09:53;;;;;;;18.45;12.07;;;;;;;10.97;70.58;100917.22;5049149;28;20052;-49
2021/10/20 03:12:18;;;;;;;16.60;11.38;;;;;;;10.93;71.86;100945.22;5049961;28;20396;-50
2021/10/20 03:14:44;;;;;;;19.30;11.75;;;;;;;10.68;73.18;100948.03;5050432;28;20036;-49
2021/10/20 03:17:11;;;;;;;19.55;11.80;;;;;;;10.64;73.25;100948.53;5050212;28;20390;-50
2021/10/20 03:19:36;;;;;;;17.08;12.27;;;;;;;10.71;72.93;100949.50;5049856;28;20072;-48
2021/10/20 03:22:02;;;;;;;21.73;11.98;;;;;;;10.81;71.25;100949.28;5049934;28;20059;-47
2021/10/20 03:24:27;;;;;;;20.75;12.25;;;;;;;10.77;71.88;100956.78;5050451;28;20025;-47
2021/10/20 03:26:53;;;;;;;19.98;11.73;;;;;;;10.72;71.27;100956.50;5049747;28;20033;-49
2021/10/20 03:29:18;;;;;;;19.00;11.93;;;;;;;10.45;72.18;100942.66;5049723;28;20033;-47
2021/10/20 03:31:44;;;;;;;20.08;11.90;;;;;;;10.41;71.29;100951.94;5049369;28;20067;-47
2021/10/20 03:34:09;;;;;;;18.83;12.15;;;;;;;10.48;71.29;100942.28;5050055;28;20036;-47
2021/10/20 03:36:35;;;;;;;15.00;11.48;;;;;;;10.47;72.38;100948.63;5049694;28;20037;-49
2021/10/20 03:39:00;;;;;;;16.67;11.60;;;;;;;10.63;70.72;100946.88;5049694;28;20029;-50
2021/10/20 03:41:25;;;;;;;31.25;18.35;;;;;;;10.51;70.84;100943.78;5049503;28;20461;-48
2021/10/20 03:43:51;;;;;;;67.78;37.25;;;;;;;10.73;70.18;100948.31;5049656;28;20033;-48
2021/10/20 03:46:16;;;;;;;95.63;51.45;;;;;;;10.92;69.31;100952.34;5049168;28;20032;-49
2021/10/20 03:48:42;;;;;;;27.48;16.38;;;;;;;10.70;71.01;100951.34;5049345;28;20043;-48
2021/10/20 03:51:07;;;;;;;20.50;11.85;;;;;;;10.82;70.72;100956.28;5049256;28;20053;-50
2021/10/20 03:53:33;;;;;;;16.70;12.10;;;;;;;10.66;71.27;100942.03;5049418;28;20032;-48
2021/10/20 03:55:58;;;;;;;19.42;12.77;;;;;;;10.36;72.57;100947.16;5049520;28;20108;-48
2021/10/20 03:58:24;;;;;;;20.63;12.85;;;;;;;10.28;72.46;100944.50;5049352;28;20408;-49
2021/10/20 04:00:50;;;;;;;18.45;11.77;;;;;;;10.40;72.54;100947.66;5049273;28;20074;-49
2021/10/20 04:03:16;;;;;;;18.27;11.93;;;;;;;10.36;72.22;100944.50;5049368;28;20028;-48
2021/10/20 04:05:41;;;;;;;18.13;12.50;;;;;;;10.38;72.78;100947.00;5049012;28;20111;-49
2021/10/20 04:08:07;;;;;;;18.75;12.25;;;;;;;10.70;73.77;100948.69;5048913;28;20025;-50
2021/10/20 04:10:32;;;;;;;18.67;11.88;;;;;;;10.98;69.40;100952.66;5049197;28;20028;-48
2021/10/20 04:12:58;;;;;;;16.15;11.70;;;;;;;10.90;69.47;100948.22;5049230;28;20033;-51
2021/10/20 04:15:24;;;;;;;20.60;12.45;;;;;;;10.58;69.76;100950.06;5049599;28;20033;-48
2021/10/20 04:17:50;;;;;;;20.15;12.25;;;;;;;10.39;70.77;100945.16;5050163;28;20104;-49
2021/10/20 04:20:17;;;;;;;19.58;12.23;;;;;;;10.23;71.77;100941.53;5052954;28;20116;-51
2021/10/20 04:22:42;;;;;;;20.30;13.15;;;;;;;10.43;70.94;100946.47;5052562;28;20021;-48
2021/10/20 04:25:09;;;;;;;20.55;12.55;;;;;;;10.40;71.02;100947.66;5052215;28;20036;-49
2021/10/20 04:27:35;;;;;;;31.02;14.60;;;;;;;10.62;70.18;100963.84;5052385;28;20048;-49
2021/10/20 04:30:00;;;;;;;21.83;14.00;;;;;;;10.62;73.04;100956.69;5045820;28;20079;-48
2021/10/20 04:32:26;;;;;;;21.40;14.20;;;;;;;10.73;73.07;100961.63;5036579;28;20056;-47
2021/10/20 04:34:51;;;;;;;22.80;14.25;;;;;;;10.81;70.32;100952.75;5042535;28;20033;-50
2021/10/20 04:37:23;;;;;;;19.23;13.45;;;;;;;10.54;71.15;100957.56;5039343;28;20025;-49
2021/10/20 04:39:49;;;;;;;25.60;13.52;;;;;;;10.17;72.13;100964.31;5032974;28;20417;-49
2021/10/20 04:42:15;;;;;;;26.65;14.90;;;;;;;10.06;72.92;100959.38;5032854;28;20025;-49
2021/10/20 04:44:40;;;;;;;36.88;16.10;;;;;;;10.18;73.22;100958.03;5032351;28;20090;-50
2021/10/20 04:47:06;;;;;;;32.10;15.88;;;;;;;10.02;73.43;100963.38;5036485;28;20404;-51
2021/10/20 04:49:31;;;;;;;23.50;13.65;;;;;;;9.99;72.77;100961.03;5051034;28;20029;-48
2021/10/20 04:51:57;;;;;;;21.63;13.63;;;;;;;9.97;72.77;100960.38;5050991;28;20024;-51
2021/10/20 04:54:22;;;;;;;43.83;25.02;;;;;;;9.87;73.89;100955.25;5049752;28;20036;-49
2021/10/20 04:56:48;;;;;;;32.08;16.92;;;;;;;9.97;74.62;100960.38;5049692;28;20029;-49
2021/10/20 04:59:13;;;;;;;38.65;21.42;;;;;;;9.86;74.44;100966.06;5049590;28;20032;-48
2021/10/20 05:01:39;;;;;;;29.67;17.70;;;;;;;10.05;73.11;100967.50;5050205;28;20497;-48
2021/10/20 05:04:04;;;;;;;28.02;15.48;;;;;;;9.98;72.44;100962.06;5050184;28;20033;-49
2021/10/20 05:06:30;;;;;;;38.15;19.88;;;;;;;9.98;74.68;100962.88;5050238;28;20020;-47
2021/10/20 05:08:55;;;;;;;25.95;13.13;;;;;;;10.00;73.50;100959.22;5050078;28;20097;-48
2021/10/20 05:11:21;;;;;;;28.70;14.55;;;;;;;10.05;72.39;100960.38;5050439;28;20032;-49
2021/10/20 05:13:46;;;;;;;31.38;15.15;;;;;;;10.22;72.37;100961.13;5051081;28;20028;-48
2021/10/20 05:16:12;;;;;;;31.33;15.90;;;;;;;10.65;71.18;100967.00;5052559;28;20017;-49
2021/10/20 05:18:37;;;;;;;27.63;15.77;;;;;;;10.61;70.79;100965.69;5051710;28;20029;-49
2021/10/20 05:21:02;;;;;;;36.40;15.52;;;;;;;10.72;69.94;100969.81;5051454;28;20090;-51
2021/10/20 05:23:28;;;;;;;35.50;15.40;;;;;;;10.98;68.87;100968.66;5051526;28;20063;-52
2021/10/20 05:25:53;;;;;;;40.22;15.88;;;;;;;10.99;69.75;100971.13;5051832;28;20461;-49
2021/10/20 05:28:19;;;;;;;37.17;15.95;;;;;;;11.10;69.16;100972.53;5051324;28;20417;-51
2021/10/20 05:30:44;;;;;;;33.35;15.02;;;;;;;10.55;70.61;100974.38;5051416;28;20029;-50
2021/10/20 05:33:10;;;;;;;31.60;14.20;;;;;;;10.42;71.86;100972.25;5050071;28;20067;-51
2021/10/20 05:35:35;;;;;;;38.55;15.05;;;;;;;10.75;69.61;100977.44;5051594;28;20135;-50
2021/10/20 05:38:01;;;;;;;32.28;14.77;;;;;;;10.79;69.42;100983.22;5051319;28;20029;-51
2021/10/20 05:40:26;;;;;;;38.00;15.68;;;;;;;11.18;70.15;100987.69;5051160;28;20472;-48
2021/10/20 05:42:52;;;;;;;32.97;14.52;;;;;;;11.45;68.89;100981.78;5051891;28;20037;-50
2021/10/20 05:45:17;;;;;;;39.67;15.27;;;;;;;11.53;67.44;100983.56;5051705;28;20469;-48
2021/10/20 05:47:43;;;;;;;31.52;13.85;;;;;;;11.59;65.94;100987.34;5051610;28;20025;-51
2021/10/20 05:50:09;;;;;;;29.50;13.27;;;;;;;11.97;65.16;100974.84;5051569;28;20025;-48
2021/10/20 05:52:34;;;;;;;26.73;12.93;;;;;;;12.17;63.66;100975.16;5051117;28;20029;-50
2021/10/20 05:55:00;;;;;;;26.48;12.60;;;;;;;12.23;63.71;100976.25;5051403;28;20029;-50
2021/10/20 05:57:26;;;;;;;29.48;12.82;;;;;;;12.33;63.47;100982.13;5051737;28;20036;-50
2021/10/20 05:59:52;;;;;;;37.85;22.10;;;;;;;12.44;62.71;100978.19;5050864;28;20390;-51
2021/10/20 06:02:18;;;;;;;28.10;13.77;;;;;;;12.74;61.84;100989.66;5050930;28;20028;-50
2021/10/20 06:04:43;;;;;;;52.03;30.13;;;;;;;12.86;61.50;100989.97;5050947;28;20025;-49
2021/10/20 06:07:09;;;;;;;51.15;28.27;;;;;;;12.79;62.82;100991.75;5050859;28;20494;-51
2021/10/20 06:09:35;;;;;;;26.05;17.75;;;;;;;13.16;61.94;100996.06;5050916;28;20021;-51
2021/10/20 06:12:01;;;;;;;31.20;16.52;;;;;;;13.33;60.64;100998.50;5050997;28;20036;-48
2021/10/20 06:14:27;;;;;;;26.30;12.27;;;;;;;13.53;58.99;100988.00;5051217;28;20025;-50
2021/10/20 06:16:53;;;;;;;61.33;37.10;;;;;;;13.68;58.85;100994.09;5050589;28;20021;-48
2021/10/20 06:19:18;;;;;;;26.08;13.07;;;;;;;13.95;57.95;100988.94;5050453;28;20021;-47
2021/10/20 06:21:44;;;;;;;25.25;13.02;;;;;;;15.00;55.68;100995.03;5050601;28;20032;-50
2021/10/20 06:24:10;;;;;;;18.30;11.43;;;;;;;14.95;54.40;101000.19;5050698;28;20484;-51
2021/10/20 06:26:35;;;;;;;19.58;11.38;;;;;;;14.83;55.11;101002.63;5050971;28;20416;-51
2021/10/20 06:29:00;;;;;;;17.88;10.95;;;;;;;14.76;54.42;101007.97;5050781;28;20115;-51
2021/10/20 06:31:26;;;;;;;18.90;10.85;;;;;;;14.78;54.88;101011.28;5050556;28;20041;-48
2021/10/20 06:33:51;;;;;;;15.82;10.07;;;;;;;15.70;53.40;101021.56;5050701;28;20377;-49
2021/10/20 06:36:43;;;;;;;17.88;10.85;;;;;;;16.31;50.14;101015.13;5050456;28;20105;-50
2021/10/20 06:39:09;;;;;;;18.77;10.70;;;;;;;15.79;51.96;101004.25;5048706;28;20039;-48
2021/10/20 06:41:34;;;;;;;18.38;9.93;;;;;;;15.98;50.66;101011.47;5049471;28;20048;-51
2021/10/20 06:44:00;;;;;;;17.42;10.15;;;;;;;15.92;50.60;101017.66;5050357;28;20462;-49
2021/10/20 06:46:25;;;;;;;14.85;9.80;;;;;;;15.80;51.04;101025.53;5050408;28;20382;-48
2021/10/20 06:48:51;;;;;;;17.00;10.07;;;;;;;15.93;50.46;101027.34;5050202;28;20017;-48
2021/10/20 06:51:16;;;;;;;14.70;10.02;;;;;;;15.81;50.98;101015.59;5050081;28;20098;-51
2021/10/20 06:53:42;;;;;;;16.92;10.43;;;;;;;15.58;50.80;101026.72;5050077;28;20347;-51
2021/10/20 06:56:08;;;;;;;16.02;10.20;;;;;;;15.68;51.49;101026.31;5050105;28;20029;-51
2021/10/20 06:58:34;;;;;;;14.45;9.98;;;;;;;15.75;51.04;101011.06;5050209;28;20020;-49
2021/10/20 07:00:59;;;;;;;16.58;10.40;;;;;;;16.19;48.98;101026.50;5048865;28;20179;-51
2021/10/20 07:03:25;;;;;;;15.70;10.48;;;;;;;16.24;48.75;101028.59;5050573;28;20400;-48
2021/10/20 07:05:50;;;;;;;14.75;9.75;;;;;;;16.34;48.54;101031.66;5032827;28;20036;-48
2021/10/20 07:08:16;;;;;;;15.75;9.73;;;;;;;17.47;48.60;101032.19;5046287;28;20021;-51
2021/10/20 07:10:41;;;;;;;18.63;10.27;;;;;;;18.54;45.23;101023.97;5050043;28;20017;-51
2021/10/20 07:13:07;;;;;;;14.70;9.73;;;;;;;19.64;42.67;101030.19;5050149;28;20025;-50
2021/10/20 07:15:33;;;;;;;14.90;9.63;;;;;;;20.37;40.88;101025.41;5049827;28;20025;-48
2021/10/20 07:17:58;;;;;;;16.90;9.63;;;;;;;21.01;39.04;101023.50;5049726;28;20028;-51
2021/10/20 07:20:24;;;;;;;16.10;9.25;;;;;;;21.29;38.49;101032.66;5049785;28;20475;-49
2021/10/20 07:22:49;;;;;;;13.32;8.85;;;;;;;21.73;37.55;101027.47;5049987;28;20024;-46
2021/10/20 07:25:15;;;;;;;13.48;9.30;;;;;;;22.09;36.21;101025.31;5049811;28;20033;-47
2021/10/20 07:27:41;;;;;;;14.75;9.00;;;;;;;22.56;36.95;101030.31;5048826;28;20511;-48
2021/10/20 07:30:07;;;;;;;13.52;9.52;;;;;;;22.87;35.16;101038.00;5047948;28;20347;-45
2021/10/20 07:32:33;;;;;;;14.18;9.40;;;;;;;23.46;34.92;101037.28;5047918;28;20140;-48
2021/10/20 07:34:58;;;;;;;15.70;9.77;;;;;;;22.76;35.03;101032.44;5047699;28;20136;-49
2021/10/20 07:37:24;;;;;;;12.93;9.93;;;;;;;22.83;34.37;101030.38;5047874;28;20021;-47
2021/10/20 07:39:49;;;;;;;14.38;9.20;;;;;;;22.85;35.15;101024.69;5047724;28;20487;-47
2021/10/20 07:42:15;;;;;;;16.23;10.02;;;;;;;22.56;34.14;101033.03;5048328;28;20049;-47
2021/10/20 07:44:40;;;;;;;18.83;9.40;;;;;;;23.08;35.89;101030.94;5049244;28;20491;-48
2021/10/20 07:47:06;;;;;;;14.18;9.20;;;;;;;23.72;33.20;101028.25;5050537;28;20097;-50
2021/10/20 07:49:32;;;;;;;13.25;9.25;;;;;;;23.74;32.65;101034.25;5049629;28;20017;-48
2021/10/20 07:51:57;;;;;;;13.27;8.77;;;;;;;23.90;34.05;101031.69;5050966;28;20365;-47
2021/10/20 07:54:26;;;;;;;13.48;8.90;;;;;;;23.80;33.43;101030.53;5053516;28;20029;-50
2021/10/20 07:56:52;;;;;;;16.13;9.40;;;;;;;22.41;35.19;101030.13;5053339;28;20067;-49
2021/10/20 07:59:18;;;;;;;13.90;9.27;;;;;;;22.86;34.35;101025.50;5053160;28;20076;-47
2021/10/20 08:01:43;;;;;;;10.35;8.88;;;;;;;23.27;34.86;101025.97;5055056;28;20041;-47
2021/10/20 08:04:09;;;;;;;13.25;9.27;;;;;;;22.87;34.19;101019.03;5052567;28;20032;-49
2021/10/20 08:06:34;;;;;;;14.98;9.50;;;;;;;22.79;34.97;101018.38;5052605;28;20152;-49
2021/10/20 08:09:00;;;;;;;14.35;9.60;;;;;;;23.05;34.97;101017.88;5053227;28;20020;-49
2021/10/20 08:11:25;;;;;;;13.75;9.43;;;;;;;23.65;33.01;101015.97;5053805;28;20547;-50
2021/10/20 08:13:51;;;;;;;11.77;8.73;;;;;;;23.47;33.66;101015.28;5053497;28;20033;-48
2021/10/20 08:16:16;;;;;;;16.48;9.40;;;;;;;22.99;33.82;101011.53;5053153;28;20025;-48
2021/10/20 08:18:41;;;;;;;12.45;8.90;;;;;;;23.72;33.48;101014.69;5053192;28;20451;-49
2021/10/20 08:21:07;;;;;;;14.30;8.93;;;;;;;23.77;33.19;101017.41;5052750;28;20021;-49
2021/10/20 08:23:32;;;;;;;10.75;8.52;;;;;;;23.89;32.74;101014.53;5053097;28;20039;-48
2021/10/20 08:25:58;;;;;;;11.73;9.30;;;;;;;23.89;32.01;101019.16;5052791;28;20404;-46
2021/10/20 08:28:23;;;;;;;17.67;11.60;;;;;;;23.51;32.88;101002.00;5052716;28;20036;-47
2021/10/20 08:30:49;;;;;;;17.63;11.60;;;;;;;23.70;32.38;101021.44;5053156;28;20461;-49
2021/10/20 08:33:16;;;;;;;16.30;11.65;;;;;;;23.78;32.21;101021.81;5052648;28;20435;-47
2021/10/20 08:35:42;;;;;;;16.63;11.38;;;;;;;23.71;32.26;101021.19;5052014;28;20028;-47
2021/10/20 08:38:07;;;;;;;18.17;11.63;;;;;;;21.30;35.88;101020.75;5052775;28;20021;-49
2021/10/20 08:40:41;;;;;;;17.88;12.00;;;;;;;21.99;35.67;101019.72;5052184;28;20045;-48
2021/10/20 08:43:06;;;;;;;20.92;11.48;;;;;;;22.02;35.80;101020.06;5052121;28;20476;-47
2021/10/20 08:45:32;;;;;;;15.77;10.80;;;;;;;22.15;35.11;101012.66;5052654;28;20124;-50
2021/10/20 08:47:58;;;;;;;14.55;10.90;;;;;;;22.34;34.79;101011.31;5052759;28;20045;-47
2021/10/20 08:50:28;;;;;;;14.25;10.13;;;;;;;22.44;34.96;101010.63;5052423;28;20033;-47
2021/10/20 08:52:53;;;;;;;13.10;9.80;;;;;;;23.10;34.60;101001.66;5052462;28;20533;-48
2021/10/20 08:55:20;;;;;;;15.05;10.57;;;;;;;23.05;34.08;101004.28;5051952;28;20024;-49
2021/10/20 08:57:47;;;;;;;13.25;10.23;;;;;;;23.71;33.58;101010.31;5051430;28;20500;-48
2021/10/20 09:00:13;;;;;;;15.38;9.85;;;;;;;24.38;32.73;101006.09;5050916;28;20055;-47
2021/10/20 09:02:40;;;;;;;12.25;9.60;;;;;;;23.71;32.54;100999.44;5051979;28;20053;-45
2021/10/20 09:05:11;;;;;;;13.85;9.88;;;;;;;23.37;34.48;100998.91;5050929;28;20032;-45
2021/10/20 09:07:39;;;;;;;16.27;10.68;;;;;;;21.79;35.55;100995.88;5051557;28;20032;-48
2021/10/20 09:10:05;;;;;;;15.65;10.05;;;;;;;22.15;36.43;100989.06;5051562;28;20029;-47
2021/10/20 09:12:36;;;;;;;13.05;10.02;;;;;;;23.09;35.61;100986.41;5051701;28;20025;-48
2021/10/20 09:15:06;;;;;;;13.48;10.10;;;;;;;23.42;34.24;100988.91;5050977;28;20024;-49
2021/10/20 09:17:52;;;;;;;14.23;10.35;;;;;;;23.74;33.87;100981.78;5051934;28;20065;-46
2021/10/20 09:20:22;;;;;;;14.32;10.30;;;;;;;23.35;34.03;100982.84;5051796;28;20029;-46
2021/10/20 09:23:03;;;;;;;17.20;10.70;;;;;;;23.57;34.16;100988.22;5051737;28;20020;-50
2021/10/20 09:25:44;;;;;;;16.92;10.85;;;;;;;23.81;33.03;100988.66;5051763;28;20024;-48
2021/10/20 09:28:14;;;;;;;16.42;11.15;;;;;;;23.29;34.22;100983.91;5051495;28;20025;-47
2021/10/20 09:30:41;;;;;;;15.02;11.15;;;;;;;23.28;34.06;100976.81;5051071;28;20020;-48
2021/10/20 09:33:09;;;;;;;16.75;11.48;;;;;;;23.13;34.32;100982.94;5051344;28;20569;-47
2021/10/20 09:35:35;;;;;;;16.70;10.82;;;;;;;23.34;33.87;100974.97;5051097;28;20044;-45
2021/10/20 09:38:01;;;;;;;16.08;10.90;;;;;;;22.80;34.57;100971.16;5051004;28;20017;-48
2021/10/20 09:40:47;;;;;;;17.23;11.25;;;;;;;22.25;36.24;100972.97;5051190;28;20025;-47
2021/10/20 09:43:20;;;;;;;14.75;10.45;;;;;;;21.44;37.83;100965.28;5050895;28;20036;-49
2021/10/20 09:45:46;;;;;;;14.65;9.93;;;;;;;22.73;35.78;100958.88;5050898;28;20107;-47
2021/10/20 09:48:14;;;;;;;14.48;10.55;;;;;;;23.51;34.92;100969.41;5051044;28;20067;-48
2021/10/20 09:51:07;;;;;;;14.35;10.07;;;;;;;23.42;34.55;100955.50;5050830;28;20021;-49
2021/10/20 09:53:34;;;;;;;13.98;9.27;;;;;;;23.94;33.52;100954.78;5048775;28;20060;-48
2021/10/20 09:56:22;;;;;;;12.35;9.43;;;;;;;23.64;33.30;100947.22;5050486;28;20017;-49
2021/10/20 09:58:49;;;;;;;12.15;9.73;;;;;;;23.31;33.76;100949.16;5051081;28;20109;-50
2021/10/20 10:01:17;;;;;;;13.15;9.15;;;;;;;23.38;34.29;100940.78;5051082;28;20368;-48
2021/10/20 10:03:42;;;;;;;13.57;9.70;;;;;;;23.02;33.86;100937.75;5051242;28;20039;-48
2021/10/20 10:06:08;;;;;;;12.18;9.50;;;;;;;22.69;34.98;100931.44;5050195;28;20108;-50
2021/10/20 10:08:33;;;;;;;14.85;9.50;;;;;;;21.97;36.22;100929.75;5051028;28;20239;-47
2021/10/20 10:10:59;;;;;;;15.05;9.70;;;;;;;22.73;34.71;100920.91;5050888;28;20017;-47
2021/10/20 10:13:26;;;;;;;15.10;9.98;;;;;;;22.96;34.62;100934.16;5051431;28;20401;-45
2021/10/20 10:15:52;;;;;;;12.60;9.95;;;;;;;23.10;34.15;100925.63;5049850;28;20024;-49
2021/10/20 10:18:17;;;;;;;12.57;9.55;;;;;;;23.00;34.08;100927.16;5032480;28;20029;-48
2021/10/20 10:20:44;;;;;;;11.57;9.30;;;;;;;23.46;33.76;100929.44;5049358;28;20028;-47
2021/10/20 10:23:30;;;;;;;14.15;10.63;;;;;;;22.14;35.62;100914.28;5050577;28;20070;-47
2021/10/20 10:26:05;;;;;;;12.73;10.10;;;;;;;22.05;37.17;100913.88;5050564;28;20569;-48
2021/10/20 10:28:31;;;;;;;12.98;9.98;;;;;;;22.71;35.25;100909.47;5050370;28;20100;-47
2021/10/20 10:31:10;;;;;;;11.95;9.85;;;;;;;22.86;35.25;100908.81;5049705;28;20025;-46
2021/10/20 10:33:50;;;;;;;14.98;9.60;;;;;;;23.29;34.75;100907.88;5050017;28;20077;-49
2021/10/20 10:36:19;;;;;;;12.38;10.32;;;;;;;23.34;34.41;100899.75;5050211;28;20017;-49
2021/10/20 10:38:48;;;;;;;12.43;10.02;;;;;;;23.32;34.49;100907.34;5050348;28;20049;-46
2021/10/20 10:41:18;;;;;;;12.80;9.70;;;;;;;23.88;33.67;100897.94;5050120;28;20028;-46
2021/10/20 10:44:02;;;;;;;13.30;10.45;;;;;;;22.54;35.84;100901.44;5050268;28;20091;-49
2021/10/20 10:46:31;;;;;;;13.27;10.05;;;;;;;22.70;36.44;100888.88;5049662;28;20413;-47
2021/10/20 10:48:57;;;;;;;16.05;10.23;;;;;;;23.61;34.89;100885.28;5048479;28;20020;-49
2021/10/20 10:51:22;;;;;;;12.80;10.20;;;;;;;24.06;34.16;100886.59;5049844;28;20025;-47
2021/10/20 10:53:52;;;;;;;13.55;9.77;;;;;;;24.41;33.02;100874.22;5050212;28;20020;-47
2021/10/20 10:56:17;;;;;;;13.80;9.70;;;;;;;24.32;32.51;100873.09;5049907;28;20159;-48
2021/10/20 10:58:58;;;;;;;12.32;9.75;;;;;;;24.09;33.03;100872.47;5032060;28;20183;-45
2021/10/20 11:01:39;;;;;;;13.63;9.85;;;;;;;23.75;33.16;100863.88;5048384;28;20060;-46
2021/10/20 11:04:25;;;;;;;11.20;9.05;;;;;;;22.71;36.16;100858.75;5049778;28;20108;-47
2021/10/20 11:06:52;;;;;;;14.88;9.38;;;;;;;22.88;34.78;100858.63;5049562;28;20021;-46
2021/10/20 11:09:21;;;;;;;14.13;9.10;;;;;;;22.82;35.36;100857.75;5050118;28;20025;-47